Terminal Aerodrome Forecast
Issued by NWS

Home | Current Version | Previous Version | Text Only | Print | Product List | Glossary On
Versions: 1 2 3 4 5 6 7 8 9 10 11 12 13 14 15
000
FTUS45 KRIW 050500
TAFRKS
TAF
KRKS 050525Z 0506/0606 10007KT P6SM SCT150
     FM051800 10007KT P6SM VCSH SCT100 BKN150
     FM052000 VRB10G20KT P6SM VCTS SCT060CB BKN100
     FM060300 29010G15KT P6SM -SHRA SCT030 BKN060=

USA.gov is the U.S. government's official web portal to all federal, state and local government web resources and services.